Time;durP1;ratioP1;P1;durP2;ratioP2;P2;SDS_P1;SDS_P2;PMS_P1;PMS_P2;Temp;Humidity;BMP_temperature;BMP_pressure;BME280_temperature;BME280_humidity;BME280_pressure;Samples;Min_cycle;Max_cycle;Signal;HPM_P1;HPM_P2
2020/12/16 00:02:22;;;;;;;47.17;33.10;;;8.20;99.90;;;;;;5056723;28;20036;-74
2020/12/16 00:04:48;;;;;;;46.92;33.17;;;8.20;99.90;;;;;;5055395;28;20111;-75
2020/12/16 00:07:14;;;;;;;48.33;34.30;;;8.30;99.90;;;;;;5054661;28;20104;-75
2020/12/16 00:09:39;;;;;;;46.47;32.63;;;8.30;99.90;;;;;;5055256;28;20032;-76
2020/12/16 00:12:05;;;;;;;47.20;33.03;;;8.30;99.90;;;;;;5059119;28;20032;-77
2020/12/16 00:14:31;;;;;;;47.58;33.95;;;8.30;99.90;;;;;;5058640;28;20368;-75
2020/12/16 00:16:56;;;;;;;46.22;33.83;;;8.30;99.90;;;;;;5054782;28;20082;-77
2020/12/16 00:19:22;;;;;;;48.97;33.15;;;8.30;99.90;;;;;;5056491;28;20507;-75
2020/12/16 00:21:48;;;;;;;49.58;33.90;;;8.30;99.90;;;;;;5054346;28;20025;-75
2020/12/16 00:24:13;;;;;;;44.95;33.60;;;8.30;99.90;;;;;;5054800;28;20135;-76
2020/12/16 00:26:41;;;;;;;46.55;32.33;;;8.20;99.90;;;;;;5058211;28;20035;-75
2020/12/16 00:29:06;;;;;;;46.83;33.38;;;8.30;99.90;;;;;;5055880;28;20036;-77
2020/12/16 00:31:32;;;;;;;48.85;34.28;;;8.30;99.90;;;;;;5057818;28;20037;-74
2020/12/16 00:33:58;;;;;;;47.40;33.25;;;8.30;99.90;;;;;;5054570;28;20070;-76
2020/12/16 00:36:23;;;;;;;48.33;33.45;;;8.30;99.90;;;;;;5057462;28;20143;-78
2020/12/16 00:38:49;;;;;;;52.78;35.65;;;8.20;99.90;;;;;;5054204;28;20021;-74
2020/12/16 00:41:15;;;;;;;51.33;35.38;;;8.20;99.90;;;;;;5055437;28;20025;-76
2020/12/16 00:43:41;;;;;;;48.42;33.30;;;8.20;99.90;;;;;;5055287;28;20024;-77
2020/12/16 00:46:06;;;;;;;49.15;34.90;;;8.20;99.90;;;;;;5055694;28;20107;-75
2020/12/16 00:48:32;;;;;;;49.60;35.03;;;8.20;99.90;;;;;;5055426;28;20481;-74
2020/12/16 00:50:58;;;;;;;45.20;33.35;;;8.20;99.90;;;;;;5054691;28;20079;-76
2020/12/16 00:53:23;;;;;;;48.83;34.95;;;8.20;99.90;;;;;;5056818;28;20526;-75
2020/12/16 00:55:49;;;;;;;46.47;33.85;;;8.20;99.90;;;;;;5054019;28;20032;-75
2020/12/16 00:58:15;;;;;;;47.33;34.53;;;8.20;99.90;;;;;;5057543;28;20017;-75
2020/12/16 01:00:40;;;;;;;47.70;33.97;;;8.20;99.90;;;;;;5056173;28;20335;-75
2020/12/16 01:03:06;;;;;;;47.15;33.92;;;8.30;99.90;;;;;;5055410;28;20143;-75
2020/12/16 01:05:32;;;;;;;47.75;33.78;;;8.20;99.90;;;;;;5055656;28;20029;-77
2020/12/16 01:07:57;;;;;;;47.45;32.67;;;8.30;99.90;;;;;;5059029;28;20033;-76
2020/12/16 01:10:23;;;;;;;49.75;34.08;;;8.30;99.90;;;;;;5053317;28;20036;-74
2020/12/16 01:12:49;;;;;;;47.67;33.95;;;8.30;99.90;;;;;;5053274;28;20024;-76
2020/12/16 01:15:18;;;;;;;45.38;31.38;;;8.30;99.90;;;;;;5056987;28;20025;-75
2020/12/16 01:17:45;;;;;;;44.38;31.15;;;8.40;99.90;;;;;;5054611;28;20071;-77
2020/12/16 01:20:12;;;;;;;45.05;31.67;;;8.30;99.90;;;;;;5053227;28;20049;-76
2020/12/16 01:22:48;;;;;;;48.58;33.47;;;8.40;99.90;;;;;;5054621;28;20033;-75
2020/12/16 01:25:17;;;;;;;45.78;33.20;;;8.40;99.90;;;;;;5054945;28;20478;-74
2020/12/16 01:27:43;;;;;;;44.80;31.98;;;8.30;99.90;;;;;;5053103;28;20036;-75
2020/12/16 01:30:10;;;;;;;48.38;33.85;;;8.40;99.90;;;;;;5058159;28;20025;-76
2020/12/16 01:32:37;;;;;;;45.92;33.45;;;8.30;99.90;;;;;;5056603;28;20021;-74
2020/12/16 01:35:07;;;;;;;51.65;37.55;;;8.30;99.90;;;;;;5055054;28;20033;-77
2020/12/16 01:37:33;;;;;;;53.10;37.35;;;8.30;99.90;;;;;;5053366;28;20116;-76
2020/12/16 01:39:59;;;;;;;50.55;35.65;;;8.20;99.90;;;;;;5056101;28;20095;-75
2020/12/16 01:42:24;;;;;;;48.42;34.42;;;8.20;99.90;;;;;;5055813;28;20056;-75
2020/12/16 01:44:50;;;;;;;49.38;34.15;;;8.20;99.90;;;;;;5058135;28;20025;-76
2020/12/16 01:47:17;;;;;;;47.33;33.55;;;8.20;99.90;;;;;;5055106;28;20040;-76
2020/12/16 01:49:43;;;;;;;48.08;33.40;;;8.20;99.90;;;;;;5054559;28;20029;-74
2020/12/16 01:52:12;;;;;;;48.72;33.35;;;8.30;99.90;;;;;;5053100;28;20055;-74
2020/12/16 01:54:38;;;;;;;45.88;32.72;;;8.30;99.90;;;;;;5054323;28;20028;-77
2020/12/16 01:57:04;;;;;;;44.72;31.73;;;8.30;99.90;;;;;;5055400;28;20132;-75
2020/12/16 01:59:35;;;;;;;46.47;32.40;;;8.20;99.90;;;;;;5052848;28;20044;-77
2020/12/16 02:02:02;;;;;;;47.00;32.03;;;8.30;99.90;;;;;;5057818;28;20028;-75
2020/12/16 02:04:35;;;;;;;48.47;33.38;;;8.30;99.90;;;;;;5055280;28;20104;-77
2020/12/16 02:07:07;;;;;;;45.15;31.02;;;8.30;99.90;;;;;;5054403;28;20422;-76
2020/12/16 02:09:42;;;;;;;44.63;31.70;;;8.30;99.90;;;;;;5053846;28;20035;-75
2020/12/16 02:12:10;;;;;;;45.15;32.90;;;8.30;99.90;;;;;;5054540;28;20025;-75
2020/12/16 02:14:35;;;;;;;51.35;33.63;;;8.30;99.90;;;;;;5054399;28;20025;-78
2020/12/16 02:17:01;;;;;;;50.33;33.15;;;8.30;99.90;;;;;;5057028;28;20032;-77
2020/12/16 02:19:32;;;;;;;45.50;32.03;;;8.30;99.90;;;;;;5054157;28;20021;-76
2020/12/16 02:21:58;;;;;;;45.53;32.13;;;8.30;99.90;;;;;;5054144;28;20103;-75
2020/12/16 02:24:27;;;;;;;44.97;32.50;;;8.40;99.90;;;;;;5053045;28;20159;-74
2020/12/16 02:26:53;;;;;;;44.17;31.63;;;8.40;99.90;;;;;;5053965;28;20033;-74
2020/12/16 02:29:19;;;;;;;46.03;31.45;;;8.40;99.90;;;;;;5054754;28;20108;-76
2020/12/16 02:31:46;;;;;;;50.15;33.22;;;8.40;99.90;;;;;;5054274;28;20056;-75
2020/12/16 02:34:12;;;;;;;43.20;32.20;;;8.30;99.90;;;;;;5054673;28;20040;-77
2020/12/16 02:36:37;;;;;;;48.28;31.92;;;8.30;99.90;;;;;;5054098;28;20021;-74
2020/12/16 02:39:03;;;;;;;41.17;29.25;;;8.30;99.90;;;;;;5054617;28;20061;-75
2020/12/16 02:41:29;;;;;;;46.08;30.25;;;8.30;99.90;;;;;;5054018;28;20013;-74
2020/12/16 02:43:54;;;;;;;43.65;30.70;;;8.30;99.90;;;;;;5054402;28;20029;-77
2020/12/16 02:46:20;;;;;;;41.92;29.90;;;8.30;99.90;;;;;;5055535;28;20418;-76
2020/12/16 02:48:46;;;;;;;43.28;30.90;;;8.40;99.90;;;;;;5054261;28;20390;-77
2020/12/16 02:51:12;;;;;;;45.67;30.63;;;8.40;99.90;;;;;;5052776;28;20429;-75
2020/12/16 02:53:37;;;;;;;42.58;29.83;;;8.40;99.90;;;;;;5053350;28;20068;-77
2020/12/16 02:56:03;;;;;;;44.83;31.05;;;8.40;99.90;;;;;;5053994;28;20025;-77
2020/12/16 02:58:29;;;;;;;46.00;32.08;;;8.40;99.90;;;;;;5054134;28;20021;-75
2020/12/16 03:00:54;;;;;;;41.90;29.83;;;8.40;99.90;;;;;;5052054;28;20025;-74
2020/12/16 03:03:20;;;;;;;42.45;30.00;;;8.40;99.90;;;;;;5056561;28;20100;-74
2020/12/16 03:05:46;;;;;;;43.92;28.83;;;8.40;99.90;;;;;;5054051;28;20050;-75
2020/12/16 03:08:11;;;;;;;42.13;29.20;;;8.50;99.90;;;;;;5053431;28;20029;-76
2020/12/16 03:10:38;;;;;;;39.60;28.35;;;8.50;99.90;;;;;;5052807;28;20029;-77
2020/12/16 03:13:04;;;;;;;39.35;28.13;;;8.50;99.90;;;;;;5054288;28;20414;-75
2020/12/16 03:15:31;;;;;;;40.20;28.00;;;8.50;99.90;;;;;;5054048;28;20474;-74
2020/12/16 03:17:56;;;;;;;40.92;29.00;;;8.50;99.90;;;;;;5053447;28;20475;-76
2020/12/16 03:20:22;;;;;;;39.90;28.83;;;8.50;99.90;;;;;;5055504;28;20027;-75
2020/12/16 03:22:48;;;;;;;40.80;28.70;;;8.50;99.90;;;;;;5051754;28;20040;-75
2020/12/16 03:25:14;;;;;;;42.35;29.10;;;8.60;99.90;;;;;;5053489;28;20029;-75
2020/12/16 03:27:40;;;;;;;41.20;29.05;;;8.50;99.90;;;;;;5051780;28;20119;-75
2020/12/16 03:30:06;;;;;;;43.50;29.05;;;8.60;99.90;;;;;;5053255;28;20029;-75
2020/12/16 03:32:33;;;;;;;43.08;28.95;;;8.50;99.90;;;;;;5053615;28;20025;-75
2020/12/16 03:34:59;;;;;;;39.13;28.10;;;8.50;99.90;;;;;;5058902;28;20063;-75
2020/12/16 03:37:24;;;;;;;39.92;27.65;;;8.50;99.90;;;;;;5055959;28;20025;-75
2020/12/16 03:39:50;;;;;;;42.40;29.00;;;8.50;99.90;;;;;;5055396;28;20017;-74
2020/12/16 03:42:16;;;;;;;43.97;30.30;;;8.50;99.90;;;;;;5055344;28;20025;-74
2020/12/16 03:44:41;;;;;;;44.28;29.08;;;8.50;99.90;;;;;;5055325;28;20029;-76
2020/12/16 03:47:07;;;;;;;41.42;28.95;;;8.50;99.90;;;;;;5057107;28;20091;-77
2020/12/16 03:49:32;;;;;;;38.42;28.13;;;8.50;99.90;;;;;;5059353;28;20043;-77
2020/12/16 03:51:58;;;;;;;45.58;30.13;;;8.40;99.90;;;;;;5057235;28;20025;-75
2020/12/16 03:54:24;;;;;;;42.50;28.48;;;8.40;99.90;;;;;;5056726;28;20021;-77
2020/12/16 03:56:51;;;;;;;41.92;28.85;;;8.40;99.90;;;;;;5055456;28;20052;-75
2020/12/16 03:59:17;;;;;;;44.83;30.13;;;8.40;99.90;;;;;;5054773;28;20098;-77
2020/12/16 04:01:43;;;;;;;44.10;29.77;;;8.40;99.90;;;;;;5056502;28;20025;-74
2020/12/16 04:04:09;;;;;;;42.75;29.33;;;8.40;99.90;;;;;;5056563;28;20029;-76
2020/12/16 04:06:36;;;;;;;42.58;32.58;;;8.30;99.90;;;;;;5057777;28;20025;-75
2020/12/16 04:09:04;;;;;;;45.13;30.70;;;8.30;99.90;;;;;;5058736;28;20025;-76
2020/12/16 04:11:29;;;;;;;48.88;33.58;;;8.20;99.90;;;;;;5056436;28;20021;-74
2020/12/16 04:13:55;;;;;;;44.80;34.03;;;8.10;99.90;;;;;;5055213;28;20151;-74
2020/12/16 04:16:22;;;;;;;51.20;35.17;;;8.10;99.90;;;;;;5054908;28;20052;-78
2020/12/16 04:18:49;;;;;;;45.50;33.17;;;8.10;99.90;;;;;;5055082;28;20108;-76
2020/12/16 04:21:20;;;;;;;48.50;33.75;;;8.00;99.90;;;;;;5060341;28;20053;-77
2020/12/16 04:23:46;;;;;;;45.97;34.10;;;8.00;99.90;;;;;;5057390;28;20139;-77
2020/12/16 04:26:12;;;;;;;49.13;34.47;;;8.00;99.90;;;;;;5056724;28;20367;-77
2020/12/16 04:28:38;;;;;;;51.80;36.15;;;8.00;99.90;;;;;;5056223;28;20059;-76
2020/12/16 04:31:05;;;;;;;52.05;35.45;;;8.00;99.90;;;;;;5056671;28;20025;-77
2020/12/16 04:33:31;;;;;;;50.28;36.10;;;7.90;99.90;;;;;;5056614;28;20025;-77
2020/12/16 04:35:57;;;;;;;48.85;33.97;;;7.90;99.90;;;;;;5057489;28;20102;-77
2020/12/16 04:38:22;;;;;;;48.88;34.75;;;7.90;99.90;;;;;;5057518;28;20040;-77
2020/12/16 04:40:48;;;;;;;52.05;35.25;;;7.90;99.90;;;;;;5055350;28;20029;-76
2020/12/16 04:43:20;;;;;;;47.25;33.83;;;8.00;99.90;;;;;;5056586;28;20020;-77
2020/12/16 04:45:46;;;;;;;45.45;33.13;;;7.90;99.90;;;;;;5054936;28;20059;-78
2020/12/16 04:48:13;;;;;;;41.25;29.00;;;8.00;99.90;;;;;;5054483;28;20029;-76
2020/12/16 04:50:41;;;;;;;46.55;32.92;;;7.90;99.90;;;;;;5055387;28;20033;-76
2020/12/16 04:53:12;;;;;;;46.75;32.28;;;8.00;99.90;;;;;;5060254;28;20559;-77
2020/12/16 04:55:39;;;;;;;45.92;31.77;;;8.00;99.90;;;;;;5056550;28;20029;-78
2020/12/16 04:58:05;;;;;;;45.65;33.38;;;7.90;99.90;;;;;;5058392;28;20017;-78
2020/12/16 05:00:32;;;;;;;45.10;33.03;;;7.90;99.90;;;;;;5057212;28;20036;-77
2020/12/16 05:03:02;;;;;;;47.47;33.60;;;7.90;99.90;;;;;;5055714;28;20028;-77
2020/12/16 05:05:29;;;;;;;48.70;32.50;;;7.90;99.90;;;;;;5055742;28;20436;-77
2020/12/16 05:07:55;;;;;;;47.35;32.95;;;7.90;99.90;;;;;;5061079;28;20497;-77
2020/12/16 05:10:35;;;;;;;45.63;31.98;;;8.00;99.90;;;;;;5055819;28;20320;-77
2020/12/16 05:13:10;;;;;;;43.42;30.83;;;8.10;99.90;;;;;;5058691;28;20032;-78
2020/12/16 05:15:37;;;;;;;52.85;33.78;;;8.10;99.90;;;;;;5055514;28;20033;-78
2020/12/16 05:18:17;;;;;;;46.90;32.25;;;8.10;99.90;;;;;;5055008;28;20160;-77
2020/12/16 05:20:58;;;;;;;46.75;31.58;;;8.10;99.90;;;;;;5056640;28;20478;-77
2020/12/16 05:23:24;;;;;;;48.40;32.90;;;8.10;99.90;;;;;;5057583;28;20071;-77
2020/12/16 05:26:08;;;;;;;46.90;33.15;;;8.00;99.90;;;;;;5033681;28;20036;-77
2020/12/16 05:28:36;;;;;;;48.38;33.40;;;8.00;99.90;;;;;;5034513;28;20052;-77
2020/12/16 05:31:05;;;;;;;49.42;33.63;;;8.00;99.90;;;;;;5053607;28;20497;-77
2020/12/16 05:33:31;;;;;;;48.65;32.05;;;8.00;99.90;;;;;;5053730;28;20025;-78
2020/12/16 05:35:57;;;;;;;43.00;31.75;;;8.00;99.90;;;;;;5053063;28;20035;-77
2020/12/16 05:38:23;;;;;;;49.22;32.83;;;8.00;99.90;;;;;;5055389;28;20023;-77
2020/12/16 05:40:49;;;;;;;45.80;30.23;;;8.00;99.90;;;;;;5055986;28;20056;-77
2020/12/16 05:43:27;;;;;;;43.78;30.73;;;7.90;99.90;;;;;;5054080;28;20028;-76
2020/12/16 05:45:53;;;;;;;40.95;29.15;;;8.00;99.90;;;;;;5055207;28;20548;-76
2020/12/16 05:48:20;;;;;;;43.05;29.30;;;8.00;99.90;;;;;;5053275;28;20033;-77
2020/12/16 05:50:54;;;;;;;39.60;29.42;;;8.00;99.90;;;;;;5053203;28;20075;-78
2020/12/16 05:53:21;;;;;;;39.22;29.17;;;8.00;99.90;;;;;;5053240;28;20035;-76
2020/12/16 05:55:55;;;;;;;41.50;28.33;;;8.10;99.90;;;;;;5054075;28;20045;-76
2020/12/16 05:58:23;;;;;;;41.30;27.88;;;8.10;99.90;;;;;;5053776;28;20029;-76
2020/12/16 06:01:03;;;;;;;36.70;27.45;;;8.10;99.90;;;;;;5052716;28;20028;-77
2020/12/16 06:03:30;;;;;;;40.53;27.70;;;8.10;99.90;;;;;;5058081;28;20131;-77
2020/12/16 06:06:02;;;;;;;38.70;27.73;;;8.10;99.90;;;;;;5053334;28;20095;-76
2020/12/16 06:08:39;;;;;;;37.78;26.73;;;8.20;99.90;;;;;;5053743;28;20021;-77
2020/12/16 06:11:07;;;;;;;38.42;26.55;;;8.20;99.90;;;;;;5054739;28;20032;-77
2020/12/16 06:13:33;;;;;;;37.47;27.00;;;8.20;99.90;;;;;;5053931;28;20029;-77
2020/12/16 06:16:00;;;;;;;41.28;27.05;;;8.20;99.90;;;;;;5053979;28;20029;-77
2020/12/16 06:18:32;;;;;;;37.53;27.52;;;8.30;99.90;;;;;;5052517;28;20487;-77
2020/12/16 06:20:58;;;;;;;37.05;26.10;;;8.30;99.90;;;;;;5053800;28;20021;-77
2020/12/16 06:23:27;;;;;;;35.55;26.75;;;8.30;99.90;;;;;;5052831;28;20449;-76
2020/12/16 06:25:54;;;;;;;37.10;27.15;;;8.30;99.90;;;;;;5053230;28;20140;-77
2020/12/16 06:28:20;;;;;;;35.40;26.75;;;8.30;99.90;;;;;;5052295;28;20033;-76
2020/12/16 06:31:09;;;;;;;40.00;27.88;;;8.40;99.90;;;;;;5051972;28;20033;-76
2020/12/16 06:33:44;;;;;;;35.33;27.38;;;8.30;99.90;;;;;;5052884;28;20037;-76
2020/12/16 06:36:11;;;;;;;36.47;27.15;;;8.30;99.90;;;;;;5055779;28;20025;-77
2020/12/16 06:38:48;;;;;;;40.35;28.45;;;8.20;99.90;;;;;;5052096;28;20044;-77
2020/12/16 06:41:31;;;;;;;35.28;26.33;;;8.20;99.90;;;;;;5054300;28;20029;-76
2020/12/16 06:44:07;;;;;;;36.88;26.05;;;8.20;99.90;;;;;;5052346;28;20024;-75
2020/12/16 06:46:33;;;;;;;38.20;26.13;;;8.20;99.90;;;;;;5053290;28;20036;-77
2020/12/16 06:49:07;;;;;;;39.00;26.42;;;8.20;99.90;;;;;;5053400;28;20092;-77
2020/12/16 06:51:42;;;;;;;39.88;26.15;;;8.20;99.90;;;;;;5055757;28;20107;-74
2020/12/16 06:54:11;;;;;;;35.50;25.48;;;8.20;99.90;;;;;;5053071;28;20026;-75
2020/12/16 06:56:38;;;;;;;35.63;26.02;;;8.20;99.90;;;;;;5057901;28;20025;-75
2020/12/16 06:59:04;;;;;;;38.22;28.10;;;8.20;99.90;;;;;;5053090;28;20021;-75
2020/12/16 07:01:31;;;;;;;36.97;26.50;;;8.20;99.90;;;;;;5053316;28;20036;-74
2020/12/16 07:03:56;;;;;;;35.83;26.88;;;8.20;99.90;;;;;;5052188;28;20061;-75
2020/12/16 07:06:28;;;;;;;36.97;26.95;;;8.20;99.90;;;;;;5052277;28;20033;-75
2020/12/16 07:09:23;;;;;;;41.75;29.80;;;8.20;99.90;;;;;;5053290;28;20336;-75
2020/12/16 07:11:52;;;;;;;40.58;29.35;;;8.10;99.90;;;;;;5059270;28;20027;-75
2020/12/16 07:14:38;;;;;;;44.80;31.35;;;8.00;99.90;;;;;;5056890;28;20025;-74
2020/12/16 07:17:13;;;;;;;47.38;32.67;;;8.00;99.90;;;;;;5039400;28;20037;-75
2020/12/16 07:19:38;;;;;;;49.30;33.05;;;8.00;99.90;;;;;;5037676;28;20049;-75
2020/12/16 07:22:20;;;;;;;47.47;34.03;;;8.00;99.90;;;;;;5037480;28;20036;-75
2020/12/16 07:24:49;;;;;;;49.90;34.50;;;8.10;99.90;;;;;;5037841;28;20033;-74
2020/12/16 07:27:24;;;;;;;51.78;34.45;;;8.00;99.90;;;;;;5047100;28;20032;-76
2020/12/16 07:29:57;;;;;;;50.00;35.03;;;8.10;99.90;;;;;;5056697;28;20025;-74
2020/12/16 07:32:24;;;;;;;49.22;34.03;;;8.10;99.90;;;;;;5057070;28;20402;-75
2020/12/16 07:34:55;;;;;;;49.90;34.25;;;8.20;99.90;;;;;;5055559;28;20033;-74
2020/12/16 07:37:29;;;;;;;48.45;34.15;;;8.20;99.90;;;;;;5056042;28;20116;-79
2020/12/16 07:40:00;;;;;;;43.63;31.63;;;8.20;99.90;;;;;;5055767;28;20021;-76
2020/12/16 07:42:33;;;;;;;48.90;33.20;;;8.20;99.90;;;;;;5056978;28;20075;-74
2020/12/16 07:45:00;;;;;;;48.20;33.47;;;8.30;99.90;;;;;;5058504;28;20391;-75
2020/12/16 07:47:26;;;;;;;46.85;33.53;;;8.30;99.90;;;;;;5058199;28;20048;-75
2020/12/16 07:49:53;;;;;;;46.22;33.45;;;8.20;99.90;;;;;;5057020;28;20025;-74
2020/12/16 07:52:29;;;;;;;47.88;33.83;;;8.30;99.90;;;;;;5056037;28;20029;-74
2020/12/16 07:54:58;;;;;;;50.58;34.45;;;8.30;99.90;;;;;;5055749;28;20044;-77
2020/12/16 07:57:28;;;;;;;49.53;34.38;;;8.30;99.90;;;;;;5059904;28;20459;-76
2020/12/16 07:59:53;;;;;;;50.35;34.63;;;8.30;99.90;;;;;;5061321;28;20118;-77
2020/12/16 08:02:19;;;;;;;51.83;34.47;;;8.30;99.90;;;;;;5055262;28;20021;-75
2020/12/16 08:04:54;;;;;;;53.75;35.83;;;8.30;99.90;;;;;;5055078;28;20056;-74
2020/12/16 08:07:20;;;;;;;50.85;33.88;;;8.40;99.90;;;;;;5055674;28;20029;-75
2020/12/16 08:09:53;;;;;;;52.20;37.08;;;8.30;99.90;;;;;;5054892;28;20464;-77
2020/12/16 08:12:19;;;;;;;51.85;35.45;;;8.40;99.90;;;;;;5057078;28;20082;-75
2020/12/16 08:14:45;;;;;;;50.58;34.38;;;8.40;99.90;;;;;;5060847;28;20132;-75
2020/12/16 08:17:11;;;;;;;52.20;35.55;;;8.40;99.90;;;;;;5054946;28;20040;-75
2020/12/16 08:19:37;;;;;;;50.28;35.38;;;8.40;99.90;;;;;;5055682;28;20036;-77
2020/12/16 08:22:13;;;;;;;46.70;33.28;;;8.50;99.90;;;;;;5055407;28;20032;-75
2020/12/16 08:24:39;;;;;;;52.60;35.35;;;8.50;99.90;;;;;;5056167;28;20104;-73
2020/12/16 08:27:04;;;;;;;50.60;34.63;;;8.50;99.90;;;;;;5056230;28;20059;-74
2020/12/16 08:29:32;;;;;;;47.33;34.28;;;8.60;99.90;;;;;;5060356;28;20016;-77
2020/12/16 08:31:58;;;;;;;49.53;34.03;;;8.60;99.90;;;;;;5055800;28;20494;-77
2020/12/16 08:34:26;;;;;;;48.28;34.42;;;8.60;99.90;;;;;;5054748;28;20382;-75
2020/12/16 08:36:55;;;;;;;48.42;34.78;;;8.60;99.90;;;;;;5055010;28;20021;-75
2020/12/16 08:39:25;;;;;;;47.95;34.90;;;8.60;99.90;;;;;;5057978;28;20028;-76
2020/12/16 08:41:57;;;;;;;;;;;8.70;99.90;;;;;;5055615;28;20084;-75
2020/12/16 08:44:23;;;;;;;45.28;33.33;;;8.70;99.90;;;;;;5056771;28;19912;-75
2020/12/16 08:46:50;;;;;;;52.33;35.88;;;8.80;99.90;;;;;;5057839;28;20056;-74
2020/12/16 08:49:20;;;;;;;49.60;34.72;;;8.80;99.90;;;;;;5053988;28;20017;-75
2020/12/16 08:51:46;;;;;;;48.88;34.42;;;8.80;99.90;;;;;;5055292;28;20033;-75
2020/12/16 08:54:24;;;;;;;53.28;36.45;;;8.80;99.90;;;;;;5055024;28;20023;-75
2020/12/16 08:56:52;;;;;;;48.03;35.92;;;8.80;99.90;;;;;;5055870;28;20021;-75
2020/12/16 08:59:23;;;;;;;50.08;36.30;;;8.80;99.90;;;;;;5054063;28;20044;-74
2020/12/16 09:01:52;;;;;;;49.47;34.85;;;8.90;99.90;;;;;;5060088;28;20032;-77
2020/12/16 09:04:41;;;;;;;47.97;35.10;;;9.00;99.90;;;;;;5054384;28;20013;-74
2020/12/16 09:07:10;;;;;;;54.97;37.25;;;9.10;99.90;;;;;;5057752;28;20251;-75
2020/12/16 09:09:38;;;;;;;46.55;34.22;;;9.10;99.90;;;;;;5056114;28;20033;-78
2020/12/16 09:12:14;;;;;;;49.90;36.45;;;9.10;99.90;;;;;;5055135;28;20486;-75
2020/12/16 09:14:53;;;;;;;55.50;36.85;;;9.10;99.90;;;;;;5058393;28;20028;-77
2020/12/16 09:17:21;;;;;;;53.38;36.75;;;9.00;99.90;;;;;;5058913;28;20036;-75
2020/12/16 09:19:46;;;;;;;48.70;36.60;;;9.00;99.90;;;;;;5054119;28;20123;-77
2020/12/16 09:22:12;;;;;;;50.85;35.53;;;8.90;99.90;;;;;;5055231;28;20021;-75
2020/12/16 09:24:38;;;;;;;51.40;36.03;;;8.90;99.90;;;;;;5056162;28;20048;-74
2020/12/16 09:27:10;;;;;;;49.80;35.72;;;8.90;99.90;;;;;;5055473;28;20490;-76
2020/12/16 09:29:43;;;;;;;48.50;34.30;;;9.00;99.90;;;;;;5054981;28;20091;-75
2020/12/16 09:32:10;;;;;;;48.65;35.10;;;9.00;99.90;;;;;;5060772;28;20108;-74
2020/12/16 09:34:47;;;;;;;46.42;33.75;;;9.00;99.90;;;;;;5056739;28;20031;-75
2020/12/16 09:37:36;;;;;;;49.10;33.97;;;9.10;99.90;;;;;;5053497;28;20049;-77
2020/12/16 09:40:12;;;;;;;49.25;33.92;;;9.10;99.90;;;;;;5055548;28;20028;-74
2020/12/16 09:42:38;;;;;;;54.35;35.70;;;9.20;99.90;;;;;;5054407;28;20025;-75
2020/12/16 09:45:10;;;;;;;48.63;34.92;;;9.20;99.90;;;;;;5054796;28;20033;-75
2020/12/16 09:47:50;;;;;;;50.80;34.40;;;9.30;99.90;;;;;;5055966;28;20083;-75
2020/12/16 09:50:22;;;;;;;49.50;35.13;;;9.30;99.90;;;;;;5053597;28;20036;-75
2020/12/16 09:52:56;;;;;;;46.03;34.03;;;9.20;99.90;;;;;;5055387;28;20029;-75
2020/12/16 09:55:22;;;;;;;49.25;34.25;;;9.30;99.90;;;;;;5057243;28;20053;-75
2020/12/16 09:58:02;;;;;;;52.05;35.15;;;9.30;99.90;;;;;;5053832;28;20025;-74
2020/12/16 10:00:29;;;;;;;50.65;33.58;;;9.30;99.90;;;;;;5054384;28;20059;-75
2020/12/16 10:03:01;;;;;;;46.60;33.22;;;9.30;99.90;;;;;;5054711;28;20029;-77
2020/12/16 10:05:28;;;;;;;47.35;33.33;;;9.30;99.90;;;;;;5054927;28;20044;-77
2020/12/16 10:07:53;;;;;;;46.58;32.58;;;9.30;99.90;;;;;;5055139;28;20029;-77
2020/12/16 10:10:19;;;;;;;44.25;31.98;;;9.40;99.90;;;;;;5056650;28;20155;-77
2020/12/16 10:12:45;;;;;;;48.25;33.78;;;9.30;99.90;;;;;;5052500;28;20470;-73
2020/12/16 10:15:11;;;;;;;44.60;31.80;;;9.30;99.90;;;;;;5052936;28;20489;-75
2020/12/16 10:17:37;;;;;;;45.60;31.50;;;9.30;99.90;;;;;;5054224;28;20021;-75
2020/12/16 10:20:04;;;;;;;43.03;31.77;;;9.40;99.90;;;;;;5054173;28;20133;-75
2020/12/16 10:22:30;;;;;;;43.70;32.00;;;9.50;99.90;;;;;;5054673;28;20116;-74
2020/12/16 10:24:56;;;;;;;46.88;33.00;;;9.50;99.90;;;;;;5055980;28;20056;-75
2020/12/16 10:27:22;;;;;;;43.30;32.03;;;9.50;99.90;;;;;;5052978;28;20025;-75
2020/12/16 10:29:47;;;;;;;46.40;33.22;;;9.60;99.90;;;;;;5053490;28;20025;-75
2020/12/16 10:32:14;;;;;;;42.67;31.13;;;9.70;99.90;;;;;;5055026;28;20035;-77
2020/12/16 10:34:40;;;;;;;44.63;32.20;;;9.80;99.90;;;;;;5053510;28;20081;-75
2020/12/16 10:37:05;;;;;;;45.42;33.15;;;9.90;99.90;;;;;;5054087;28;20060;-77
2020/12/16 10:39:31;;;;;;;48.42;33.20;;;9.90;99.90;;;;;;5059103;28;20028;-75
2020/12/16 10:41:57;;;;;;;43.15;32.35;;;10.00;99.90;;;;;;5056253;28;20025;-74
2020/12/16 10:44:24;;;;;;;43.22;31.83;;;9.90;99.90;;;;;;5053409;28;20127;-77
2020/12/16 10:46:54;;;;;;;43.63;32.72;;;10.00;99.90;;;;;;5058652;28;20025;-76
2020/12/16 10:49:25;;;;;;;42.00;30.33;;;10.10;99.90;;;;;;5058648;28;20032;-75
2020/12/16 10:51:52;;;;;;;37.42;29.23;;;10.10;99.90;;;;;;5058932;28;20021;-75
2020/12/16 10:54:18;;;;;;;38.33;29.90;;;10.20;99.90;;;;;;5060394;28;20021;-75
2020/12/16 10:56:44;;;;;;;36.33;29.23;;;10.20;99.90;;;;;;5061132;28;20021;-75
2020/12/16 10:59:10;;;;;;;44.22;31.77;;;10.20;99.90;;;;;;5059642;28;20019;-75
2020/12/16 11:01:37;;;;;;;42.45;30.92;;;10.10;99.90;;;;;;5061030;28;20041;-75
2020/12/16 11:04:08;;;;;;;42.33;30.50;;;10.10;99.90;;;;;;5060194;28;20032;-75
2020/12/16 11:06:42;;;;;;;40.80;31.10;;;10.10;99.90;;;;;;5060288;28;20035;-75
2020/12/16 11:09:09;;;;;;;38.67;28.83;;;10.10;99.90;;;;;;5061954;28;20029;-78
2020/12/16 11:11:40;;;;;;;37.42;29.10;;;10.10;99.90;;;;;;5060261;28;20081;-74
2020/12/16 11:14:06;;;;;;;38.33;28.85;;;10.10;99.90;;;;;;5060269;28;20115;-76
2020/12/16 11:16:31;;;;;;;38.38;29.00;;;10.10;99.90;;;;;;5059854;28;20375;-75
2020/12/16 11:18:58;;;;;;;38.35;28.27;;;10.30;99.90;;;;;;5059337;28;20049;-77
2020/12/16 11:21:24;;;;;;;36.25;27.92;;;10.30;99.90;;;;;;5059006;28;20025;-74
2020/12/16 11:23:51;;;;;;;39.25;28.15;;;10.30;99.90;;;;;;5062090;28;20028;-75
2020/12/16 11:26:16;;;;;;;38.28;27.95;;;10.40;99.90;;;;;;5058618;28;20029;-78
2020/12/16 11:28:42;;;;;;;37.55;28.45;;;10.50;99.90;;;;;;5062919;28;20075;-76
2020/12/16 11:31:07;;;;;;;38.83;29.65;;;10.80;99.90;;;;;;5059967;28;20374;-77
2020/12/16 11:33:33;;;;;;;38.50;28.00;;;10.90;99.90;;;;;;5061295;28;20033;-77
2020/12/16 11:35:59;;;;;;;37.45;29.05;;;11.00;99.90;;;;;;5059198;28;20028;-74
2020/12/16 11:38:24;;;;;;;37.30;28.55;;;11.10;99.90;;;;;;5058661;28;20033;-75
2020/12/16 11:40:50;;;;;;;39.63;27.95;;;11.10;99.90;;;;;;5058485;28;20513;-74
2020/12/16 11:43:17;;;;;;;33.83;26.40;;;11.20;99.90;;;;;;5062546;28;20505;-77
2020/12/16 11:45:44;;;;;;;35.35;28.13;;;11.20;99.90;;;;;;5061806;28;20113;-75
2020/12/16 11:48:10;;;;;;;36.30;26.98;;;11.40;99.90;;;;;;5059657;28;20033;-76
2020/12/16 11:50:35;;;;;;;34.85;26.38;;;11.40;99.90;;;;;;5061740;28;20028;-75
2020/12/16 11:53:01;;;;;;;37.20;28.85;;;11.40;99.90;;;;;;5061600;28;20027;-74
2020/12/16 11:55:26;;;;;;;37.33;27.70;;;11.30;99.90;;;;;;5058170;28;20509;-76
2020/12/16 11:57:52;;;;;;;37.13;27.98;;;11.30;99.90;;;;;;5054337;28;20067;-75
2020/12/16 12:00:18;;;;;;;37.75;28.73;;;11.50;99.90;;;;;;5057633;28;20140;-76
2020/12/16 12:02:45;;;;;;;40.85;30.35;;;11.60;99.90;;;;;;5054789;28;20032;-75
2020/12/16 12:05:11;;;;;;;39.78;28.48;;;11.50;99.90;;;;;;5056978;28;20025;-75
2020/12/16 12:07:36;;;;;;;39.28;28.42;;;11.40;99.90;;;;;;5059169;28;20471;-75
2020/12/16 12:10:03;;;;;;;37.28;27.80;;;11.50;99.90;;;;;;5056324;28;20490;-73
2020/12/16 12:12:29;;;;;;;36.65;27.65;;;11.60;99.90;;;;;;5055869;28;20050;-74
2020/12/16 12:14:55;;;;;;;35.65;27.85;;;11.60;99.90;;;;;;5055896;28;20021;-75
2020/12/16 12:17:21;;;;;;;37.38;28.63;;;11.50;99.90;;;;;;5058755;28;20151;-76
2020/12/16 12:20:05;;;;;;;38.55;27.67;;;11.50;99.90;;;;;;5057866;28;20025;-75
2020/12/16 12:22:32;;;;;;;34.60;26.15;;;11.40;99.90;;;;;;5058230;28;20096;-73
2020/12/16 12:24:58;;;;;;;34.17;26.33;;;11.40;99.90;;;;;;5058831;28;20491;-74
2020/12/16 12:27:23;;;;;;;34.65;26.63;;;11.30;99.90;;;;;;5054424;28;20095;-76
2020/12/16 12:29:49;;;;;;;34.75;26.83;;;11.30;99.90;;;;;;5055569;28;20029;-74
2020/12/16 12:32:15;;;;;;;33.67;26.02;;;11.30;99.90;;;;;;5054602;28;20406;-75
2020/12/16 12:34:41;;;;;;;34.25;26.88;;;11.30;99.90;;;;;;5058648;28;20378;-74
2020/12/16 12:37:07;;;;;;;36.38;27.45;;;11.40;99.90;;;;;;5060008;28;20025;-77
2020/12/16 12:39:32;;;;;;;34.65;26.00;;;11.40;99.90;;;;;;5055302;28;20096;-75
2020/12/16 12:41:58;;;;;;;39.28;27.38;;;11.40;99.90;;;;;;5057209;28;20040;-74